createdAt,value
2023-05-27T00:02:00.466Z,101895.69
2023-05-27T00:05:02.501Z,101898.41
2023-05-27T00:08:04.421Z,101893.97
2023-05-27T00:11:06.099Z,101893.81
2023-05-27T00:14:07.664Z,101893.97
2023-05-27T00:17:15.073Z,101893.97
2023-05-27T00:20:17.193Z,101899.41
2023-05-27T00:23:18.814Z,101890.25
2023-05-27T00:26:20.577Z,101898.41
2023-05-27T00:29:26.049Z,101893.13
2023-05-27T00:32:27.631Z,101892.22
2023-05-27T00:35:29.985Z,101893.97
2023-05-27T00:38:31.551Z,101886.78
2023-05-27T00:41:33.630Z,101887.69
2023-05-27T00:44:35.575Z,101892.22
2023-05-27T00:47:37.255Z,101894.94
2023-05-27T00:50:38.824Z,101889.50
2023-05-27T00:53:42.396Z,101888.53
2023-05-27T00:56:44.903Z,101889.50
2023-05-27T00:59:47.599Z,101885.94
2023-05-27T01:02:50.819Z,101897.66
2023-05-27T01:06:01.383Z,101883.13
2023-05-27T01:09:16.632Z,101890.50
2023-05-27T01:12:39.964Z,101882.25
2023-05-27T01:15:42.291Z,101891.50
2023-05-27T01:18:45.962Z,101884.22
2023-05-27T01:21:51.719Z,101885.09
2023-05-27T01:24:54.244Z,101876.19
2023-05-27T01:27:57.198Z,101884.34
2023-05-27T01:31:14.416Z,101873.38
2023-05-27T01:34:22.074Z,101879.75
2023-05-27T01:37:26.771Z,101872.63
2023-05-27T01:40:29.573Z,101870.91
2023-05-27T01:43:32.122Z,101865.47
2023-05-27T01:46:33.741Z,101856.44
2023-05-27T01:49:36.312Z,101864.47
2023-05-27T01:52:37.964Z,101855.47
2023-05-27T01:55:39.500Z,101851.03
2023-05-27T01:58:41.055Z,101853.75
2023-05-27T02:01:43.180Z,101859.16
2023-05-27T02:04:44.715Z,101861.03
2023-05-27T02:07:46.248Z,101857.34
2023-05-27T02:10:47.787Z,101860.16
2023-05-27T02:13:50.551Z,101850.16
2023-05-27T02:16:52.591Z,101851.03
2023-05-27T02:19:54.238Z,101846.59
2023-05-27T02:22:55.847Z,101848.47
2023-05-27T02:25:57.553Z,101849.31
2023-05-27T02:28:59.098Z,101848.56
2023-05-27T02:32:01.876Z,101851.16
2023-05-27T02:35:03.909Z,101850.31
2023-05-27T02:38:05.701Z,101855.75
2023-05-27T02:41:07.359Z,101849.44
2023-05-27T02:44:09.925Z,101846.72
2023-05-27T02:47:11.957Z,101854.00
2023-05-27T02:50:14.801Z,101849.44
2023-05-27T02:53:16.385Z,101850.31
2023-05-27T02:56:19.051Z,101844.00
2023-05-27T02:59:21.025Z,101840.56
2023-05-27T03:02:22.667Z,101844.16
2023-05-27T03:05:24.356Z,101855.00
2023-05-27T03:08:25.879Z,101848.72
2023-05-27T03:11:28.077Z,101855.00
2023-05-27T03:14:29.698Z,101855.00
2023-05-27T03:17:31.256Z,101855.97
2023-05-27T03:20:33.012Z,101861.41
2023-05-27T03:23:34.796Z,101861.41
2023-05-27T03:26:36.552Z,101861.53
2023-05-27T03:29:41.638Z,101856.84
2023-05-27T03:32:43.223Z,101854.25
2023-05-27T03:35:45.063Z,101864.25
2023-05-27T03:38:46.702Z,101860.69
2023-05-27T03:41:48.513Z,101862.41
2023-05-27T03:44:50.150Z,101846.97
2023-05-27T03:47:51.976Z,101844.41
2023-05-27T03:50:55.559Z,101845.25
2023-05-27T03:53:58.596Z,101845.38
2023-05-27T03:57:00.168Z,101842.66
2023-05-27T04:00:01.776Z,101847.13
2023-05-27T04:03:09.502Z,101842.66
2023-05-27T04:06:11.316Z,101834.50
2023-05-27T04:09:14.408Z,101837.22
2023-05-27T04:12:17.209Z,101838.09
2023-05-27T04:15:18.840Z,101836.38
2023-05-27T04:18:20.940Z,101836.25
2023-05-27T04:21:22.466Z,101824.66
2023-05-27T04:24:24.936Z,101820.09
2023-05-27T04:27:27.784Z,101829.09
2023-05-27T04:30:29.316Z,101814.66
2023-05-27T04:33:31.768Z,101812.81
2023-05-27T04:36:35.417Z,101809.13
2023-05-27T04:39:46.453Z,101808.13
2023-05-27T04:42:48.577Z,101809.84
2023-05-27T04:45:50.410Z,101815.25
2023-05-27T04:48:53.890Z,101810.72
2023-05-27T04:51:55.603Z,101804.28
2023-05-27T04:54:57.192Z,101805.16
2023-05-27T04:58:10.027Z,101816.00
2023-05-27T05:01:18.159Z,101823.03
2023-05-27T05:04:27.119Z,101823.03
2023-05-27T05:07:34.234Z,101832.03
2023-05-27T05:10:36.350Z,101830.19
2023-05-27T05:13:39.671Z,101834.75
2023-05-27T05:16:41.332Z,101845.47
2023-05-27T05:19:45.032Z,101845.47
2023-05-27T05:22:46.897Z,101851.75
2023-05-27T05:25:55.357Z,101840.91
2023-05-27T05:28:57.211Z,101845.22
2023-05-27T05:31:59.227Z,101845.22
2023-05-27T05:35:03.048Z,101841.66
2023-05-27T05:38:04.841Z,101839.69
2023-05-27T05:41:06.412Z,101840.53
2023-05-27T05:44:11.911Z,101844.09
2023-05-27T05:47:13.473Z,101854.84
2023-05-27T05:50:16.215Z,101842.03
2023-05-27T05:53:18.106Z,101850.16
2023-05-27T05:56:20.992Z,101842.88
2023-05-27T05:59:22.904Z,101845.44
2023-05-27T06:02:26.398Z,101837.19
2023-05-27T06:05:28.486Z,101842.50
2023-05-27T06:08:30.183Z,101837.06
2023-05-27T06:11:38.346Z,101836.94
2023-05-27T06:14:40.469Z,101833.25
2023-05-27T06:17:42.268Z,101840.28
2023-05-27T06:20:43.986Z,101836.53
2023-05-27T06:23:45.846Z,101839.25
2023-05-27T06:26:52.218Z,101833.72
2023-05-27T06:29:53.998Z,101839.84
2023-05-27T06:33:06.765Z,101840.75
2023-05-27T06:36:08.794Z,101830.75
2023-05-27T06:39:10.637Z,101841.34
2023-05-27T06:42:13.986Z,101824.03
2023-05-27T06:45:18.111Z,101821.31
2023-05-27T06:48:23.187Z,101825.78
2023-05-27T06:51:24.838Z,101824.78
2023-05-27T06:54:28.878Z,101821.94
2023-05-27T06:57:43.827Z,101835.38
2023-05-27T07:00:51.241Z,101832.53
2023-05-27T07:04:08.301Z,101836.13
2023-05-27T07:07:19.934Z,101828.72
2023-05-27T07:10:21.845Z,101826.84
2023-05-27T07:13:23.443Z,101828.59
2023-05-27T07:16:28.196Z,101824.88
2023-05-27T07:19:31.345Z,101821.16
2023-05-27T07:22:37.233Z,101823.75
2023-05-27T07:25:39.020Z,101820.03
2023-05-27T07:28:40.597Z,101820.91
2023-05-27T07:31:55.451Z,101814.47
2023-05-27T07:35:03.635Z,101803.50
2023-05-27T07:38:05.282Z,101807.06
2023-05-27T07:41:06.844Z,101804.22
2023-05-27T07:44:08.503Z,101804.94
2023-05-27T07:47:10.617Z,101800.25
2023-05-27T07:50:12.246Z,101797.53
2023-05-27T07:53:18.537Z,101802.84
2023-05-27T07:56:20.185Z,101795.41
2023-05-27T07:59:21.768Z,101789.97
2023-05-27T08:02:23.662Z,101788.84
2023-05-27T08:05:26.337Z,101782.56
2023-05-27T08:08:46.540Z,101785.00
2023-05-27T08:12:09.353Z,101780.47
2023-05-27T08:15:24.327Z,101774.00
2023-05-27T08:18:38.511Z,101765.75
2023-05-27T08:21:44.092Z,101760.16
2023-05-27T08:25:06.363Z,101760.91
2023-05-27T08:28:37.957Z,101749.16
2023-05-27T08:32:02.317Z,101749.91
2023-05-27T08:35:04.125Z,101753.31
2023-05-27T08:38:06.260Z,101744.31
2023-05-27T08:41:13.478Z,101748.78
2023-05-27T08:47:20.882Z,101745.19
2023-05-27T08:50:22.997Z,101747.78
2023-05-27T08:53:24.929Z,101743.19
2023-05-27T08:56:31.413Z,101738.59
2023-05-27T08:59:33.242Z,101741.31
2023-05-27T09:02:34.955Z,101744.78
2023-05-27T09:05:37.234Z,101724.91
2023-05-27T09:08:50.264Z,101725.75
2023-05-27T09:11:52.577Z,101727.63
2023-05-27T09:14:57.016Z,101722.06
2023-05-27T09:21:05.072Z,101720.19
2023-05-27T09:24:06.706Z,101717.31
2023-05-27T09:27:10.463Z,101718.22
2023-05-27T09:30:12.686Z,101725.34
2023-05-27T09:33:14.232Z,101725.34
2023-05-27T09:36:21.931Z,101714.41
2023-05-27T09:39:23.702Z,101719.94
2023-05-27T09:42:25.769Z,101712.53
2023-05-27T09:45:29.084Z,101703.38
2023-05-27T09:48:32.548Z,101706.09
2023-05-27T09:51:34.678Z,101704.22
2023-05-27T09:54:37.327Z,101710.41
2023-05-27T09:57:39.998Z,101703.97
2023-05-27T10:00:42.699Z,101705.69
2023-05-27T10:03:47.785Z,101700.97
2023-05-27T10:06:51.099Z,101693.69
2023-05-27T10:09:53.031Z,101690.97
2023-05-27T10:12:55.717Z,101692.84
2023-05-27T10:15:57.293Z,101682.94
2023-05-27T10:18:59.270Z,101689.25
2023-05-27T10:22:11.091Z,101682.81
2023-05-27T10:25:14.235Z,101679.25
2023-05-27T10:28:26.405Z,101674.53
2023-05-27T10:31:30.552Z,101678.22
2023-05-27T10:34:42.851Z,101664.63
2023-05-27T10:37:44.738Z,101673.81
2023-05-27T10:40:49.273Z,101668.09
2023-05-27T10:43:58.567Z,101658.06
2023-05-27T10:47:29.432Z,101649.91
2023-05-27T10:50:35.723Z,101648.94
2023-05-27T10:53:38.273Z,101649.91
2023-05-27T10:56:52.003Z,101642.91
2023-05-27T10:59:58.503Z,101640.47
2023-05-27T11:03:01.105Z,101633.44
2023-05-27T11:06:06.671Z,101636.03
2023-05-27T11:09:08.363Z,101625.28
2023-05-27T11:12:13.920Z,101630.72
2023-05-27T11:15:15.471Z,101624.44
2023-05-27T11:18:17.258Z,101624.28
2023-05-27T11:21:19.093Z,101621.56
2023-05-27T11:24:22.727Z,101623.31
2023-05-27T11:27:24.442Z,101617.88
2023-05-27T11:30:26.215Z,101619.44
2023-05-27T11:33:37.449Z,101614.88
2023-05-27T11:36:39.607Z,101608.56
2023-05-27T11:39:52.361Z,101603.59
2023-05-27T11:42:53.948Z,101598.28
2023-05-27T11:46:04.447Z,101599.00
2023-05-27T11:49:15.751Z,101587.13
2023-05-27T11:52:18.148Z,101585.53
2023-05-27T11:55:19.662Z,101586.41
2023-05-27T11:58:21.179Z,101586.25
2023-05-27T12:01:23.059Z,101577.13
2023-05-27T12:04:24.572Z,101573.53
2023-05-27T12:07:26.193Z,101568.09
2023-05-27T12:10:27.745Z,101571.69
2023-05-27T12:13:30.626Z,101572.38
2023-05-27T12:16:32.750Z,101561.50
2023-05-27T12:19:35.445Z,101557.81
2023-05-27T12:22:37.072Z,101546.94
2023-05-27T12:25:38.757Z,101536.91
2023-05-27T12:28:40.935Z,101535.91
2023-05-27T12:31:42.470Z,101523.19
2023-05-27T12:34:44.775Z,101530.34
2023-05-27T12:37:46.385Z,101522.91
2023-05-27T12:40:49.644Z,101522.91
2023-05-27T12:43:51.162Z,101512.03
2023-05-27T12:46:52.757Z,101506.59
2023-05-27T12:49:54.293Z,101513.75
2023-05-27T12:52:55.857Z,101506.44
2023-05-27T12:55:57.342Z,101501.16
2023-05-27T12:58:58.900Z,101492.00
2023-05-27T13:02:00.898Z,101493.00
2023-05-27T13:05:02.496Z,101481.13
2023-05-27T13:08:08.400Z,101490.84
2023-05-27T13:11:09.924Z,101489.16
2023-05-27T13:14:11.422Z,101476.28
2023-05-27T13:17:12.947Z,101478.09
2023-05-27T13:20:15.678Z,101472.53
2023-05-27T13:23:17.379Z,101468.97
2023-05-27T13:26:19.042Z,101464.25
2023-05-27T13:29:20.561Z,101456.09
2023-05-27T13:32:22.156Z,101461.38
2023-05-27T13:35:24.244Z,101458.66
2023-05-27T13:38:25.886Z,101455.94
2023-05-27T13:41:27.972Z,101437.75
2023-05-27T13:44:29.496Z,101435.91
2023-05-27T13:47:31.407Z,101435.91
2023-05-27T13:50:33.674Z,101430.47
2023-05-27T13:53:35.191Z,101424.16
2023-05-27T13:56:36.847Z,101422.16
2023-05-27T13:59:38.394Z,101415.03
2023-05-27T14:02:39.931Z,101407.59
2023-05-27T14:05:41.532Z,101405.72
2023-05-27T14:08:43.084Z,101400.13
2023-05-27T14:11:44.651Z,101394.69
2023-05-27T14:14:46.208Z,101383.78
2023-05-27T14:17:47.828Z,101391.97
2023-05-27T14:20:50.015Z,101385.53
2023-05-27T14:23:51.625Z,101387.25
2023-05-27T14:26:53.126Z,101375.38
2023-05-27T14:29:54.637Z,101369.94
2023-05-27T14:32:56.301Z,101368.06
2023-05-27T14:35:58.106Z,101364.34
2023-05-27T14:38:59.868Z,101371.50
2023-05-27T14:42:01.445Z,101357.91
2023-05-27T14:45:03.092Z,101356.03
2023-05-27T14:48:04.769Z,101353.31
2023-05-27T14:51:06.641Z,101355.03
2023-05-27T14:54:09.228Z,101350.44
2023-05-27T14:57:10.761Z,101347.72
2023-05-27T15:00:12.957Z,101344.00
2023-05-27T15:03:14.660Z,101340.44
2023-05-27T15:06:16.267Z,101343.16
2023-05-27T15:09:18.256Z,101341.13
2023-05-27T15:12:19.820Z,101342.16
2023-05-27T15:15:25.215Z,101340.13
2023-05-27T15:18:26.854Z,101330.25
2023-05-27T15:21:28.458Z,101329.25
2023-05-27T15:24:30.191Z,101324.53
2023-05-27T15:27:31.985Z,101327.09
2023-05-27T15:30:33.515Z,101325.38
2023-05-27T15:33:35.475Z,101327.09
2023-05-27T15:36:37.024Z,101323.53
2023-05-27T15:39:38.649Z,101312.63
2023-05-27T15:42:41.110Z,101320.66
2023-05-27T15:45:56.025Z,101309.78
2023-05-27T15:49:04.304Z,101305.19
2023-05-27T15:52:11.745Z,101301.47
2023-05-27T15:55:13.336Z,101298.59
2023-05-27T15:58:14.904Z,101289.44
2023-05-27T16:01:16.475Z,101296.59
2023-05-27T16:04:18.065Z,101291.00
2023-05-27T16:07:19.669Z,101290.84
2023-05-27T16:10:21.552Z,101285.41
2023-05-27T16:13:25.498Z,101286.97
2023-05-27T16:16:27.170Z,101283.25
2023-05-27T16:19:28.779Z,101277.78
2023-05-27T16:22:30.410Z,101275.06
2023-05-27T16:25:31.935Z,101283.09
2023-05-27T16:28:33.510Z,101284.97
2023-05-27T16:31:35.210Z,101279.38
2023-05-27T16:34:36.984Z,101274.78
2023-05-27T16:37:39.115Z,101271.06
2023-05-27T16:40:40.674Z,101262.06
2023-05-27T16:43:42.320Z,101262.91
2023-05-27T16:46:44.034Z,101261.03
2023-05-27T16:49:45.732Z,101262.72
2023-05-27T16:52:47.237Z,101258.31
2023-05-27T16:55:50.063Z,101252.03
2023-05-27T16:58:55.576Z,101258.31
2023-05-27T17:01:57.189Z,101252.03
2023-05-27T17:04:58.884Z,101247.44
2023-05-27T17:08:01.036Z,101251.84
2023-05-27T17:11:02.644Z,101247.44
2023-05-27T17:14:04.202Z,101245.56
2023-05-27T17:17:06.028Z,101242.69
2023-05-27T17:20:09.575Z,101240.84
2023-05-27T17:23:11.189Z,101232.66
2023-05-27T17:26:14.357Z,101235.25
2023-05-27T17:29:16.613Z,101235.06
2023-05-27T17:32:18.129Z,101226.06
2023-05-27T17:35:20.483Z,101230.34
2023-05-27T17:38:25.054Z,101226.78
2023-05-27T17:41:27.553Z,101226.78
2023-05-27T17:44:29.431Z,101222.19
2023-05-27T17:47:30.963Z,101223.88
2023-05-27T17:50:32.515Z,101221.16
2023-05-27T17:53:36.444Z,101222.91
2023-05-27T17:56:38.039Z,101214.75
2023-05-27T17:59:39.630Z,101210.16
2023-05-27T18:02:41.275Z,101216.44
2023-05-27T18:05:43.055Z,101210.16
2023-05-27T18:08:44.765Z,101211.84
2023-05-27T18:11:46.571Z,101211.84
2023-05-27T18:14:48.084Z,101211.00
2023-05-27T18:17:49.709Z,101214.56
2023-05-27T18:20:54.000Z,101219.88
2023-05-27T18:23:55.713Z,101220.88
2023-05-27T18:26:57.222Z,101212.72
2023-05-27T18:29:58.800Z,101215.28
2023-05-27T18:33:01.037Z,101218.00
2023-05-27T18:36:02.668Z,101226.16
2023-05-27T18:39:04.192Z,101212.56
2023-05-27T18:42:06.422Z,101213.41
2023-05-27T18:45:08.801Z,101212.56
2023-05-27T18:48:10.330Z,101208.84
2023-05-27T18:51:11.854Z,101211.56
2023-05-27T18:54:13.453Z,101217.84
2023-05-27T18:57:18.157Z,101214.13
2023-05-27T19:00:20.107Z,101221.44
2023-05-27T19:03:21.948Z,101215.13
2023-05-27T19:06:23.561Z,101214.13
2023-05-27T19:09:25.129Z,101216.84
2023-05-27T19:12:27.225Z,101221.28
2023-05-27T19:15:28.781Z,101215.84
2023-05-27T19:18:30.600Z,101211.25
2023-05-27T19:21:33.174Z,101203.94
2023-05-27T19:24:36.987Z,101208.53
2023-05-27T19:27:38.498Z,101204.97
2023-05-27T19:30:40.100Z,101209.38
2023-05-27T19:33:41.650Z,101205.81
2023-05-27T19:36:43.506Z,101214.69
2023-05-27T19:39:45.053Z,101213.81
2023-05-27T19:42:46.796Z,101209.25
2023-05-27T19:45:48.285Z,101209.25
2023-05-27T19:48:50.067Z,101207.38
2023-05-27T19:51:51.648Z,101201.94
2023-05-27T19:54:53.232Z,101200.91
2023-05-27T19:57:54.853Z,101199.03
2023-05-27T20:00:58.689Z,101197.19
2023-05-27T20:04:01.034Z,101201.75
2023-05-27T20:07:02.681Z,101195.47
2023-05-27T20:10:05.413Z,101192.59
2023-05-27T20:13:06.923Z,101199.03
2023-05-27T20:16:08.524Z,101198.03
2023-05-27T20:19:10.072Z,101188.16
2023-05-27T20:22:11.697Z,101193.44
2023-05-27T20:25:13.392Z,101200.75
2023-05-27T20:28:15.418Z,101189.03
2023-05-27T20:31:17.218Z,101191.75
2023-05-27T20:34:18.790Z,101189.16
2023-05-27T20:37:20.701Z,101189.03
2023-05-27T20:40:22.487Z,101192.91
2023-05-27T20:43:24.024Z,101187.28
2023-05-27T20:46:27.422Z,101193.59
2023-05-27T20:49:32.052Z,101181.84
2023-05-27T20:52:33.642Z,101179.13
2023-05-27T20:55:36.163Z,101177.25
2023-05-27T20:58:37.773Z,101178.28
2023-05-27T21:01:40.066Z,101175.56
2023-05-27T21:04:42.735Z,101170.97
2023-05-27T21:07:44.413Z,101168.25
2023-05-27T21:10:46.419Z,101164.69
2023-05-27T21:13:47.912Z,101162.81
2023-05-27T21:16:49.696Z,101161.97
2023-05-27T21:19:52.713Z,101157.53
2023-05-27T21:22:54.974Z,101166.53
2023-05-27T21:25:56.610Z,101160.25
2023-05-27T21:28:58.133Z,101152.94
2023-05-27T21:31:59.739Z,101150.22
2023-05-27T21:35:01.380Z,101156.50
2023-05-27T21:38:06.771Z,101155.66
2023-05-27T21:41:08.537Z,101147.50
2023-05-27T21:44:10.213Z,101151.06
2023-05-27T21:47:11.855Z,101147.50
2023-05-27T21:50:17.325Z,101160.09
2023-05-27T21:53:18.882Z,101157.38
2023-05-27T21:56:20.517Z,101156.50
2023-05-27T21:59:22.010Z,101155.50
2023-05-27T22:02:24.191Z,101144.59
2023-05-27T22:05:25.922Z,101150.75
2023-05-27T22:08:29.887Z,101139.88
2023-05-27T22:11:31.439Z,101143.44
2023-05-27T22:14:33.023Z,101141.59
2023-05-27T22:17:34.594Z,101137.88
2023-05-27T22:20:36.242Z,101134.28
2023-05-27T22:23:37.949Z,101120.69
2023-05-27T22:26:39.597Z,101122.41
2023-05-27T22:29:41.115Z,101126.84
2023-05-27T22:32:42.728Z,101125.84
2023-05-27T22:35:44.343Z,101125.84
2023-05-27T22:38:46.243Z,101122.09
2023-05-27T22:41:47.724Z,101122.97
2023-05-27T22:44:49.298Z,101124.66
2023-05-27T22:47:53.834Z,101119.09
2023-05-27T22:50:56.079Z,101115.47
2023-05-27T22:53:57.638Z,101111.75
2023-05-27T22:56:59.196Z,101112.47
2023-05-27T23:00:00.812Z,101114.16
2023-05-27T23:03:02.548Z,101112.28
2023-05-27T23:06:04.296Z,101105.69
2023-05-27T23:09:05.960Z,101106.53
2023-05-27T23:12:07.647Z,101103.81
2023-05-27T23:15:09.364Z,101100.94
2023-05-27T23:18:11.675Z,101103.66
2023-05-27T23:21:14.901Z,101102.63
2023-05-27T23:24:16.519Z,101099.06
2023-05-27T23:27:18.090Z,101095.34
2023-05-27T23:30:19.664Z,101088.88
2023-05-27T23:33:21.257Z,101084.47
2023-05-27T23:36:22.791Z,101087.84
2023-05-27T23:39:24.353Z,101086.16
2023-05-27T23:42:25.881Z,101084.28
2023-05-27T23:45:27.406Z,101083.28
2023-05-27T23:48:28.974Z,101082.28
2023-05-27T23:51:30.580Z,101092.31
2023-05-27T23:54:34.369Z,101089.59
2023-05-27T23:57:35.963Z,101091.28
